Time;durP1;ratioP1;P1;durP2;ratioP2;P2;SDS_P1;SDS_P2;PMS_P1;PMS_P2;Temp;Humidity;BMP_temperature;BMP_pressure;BME280_temperature;BME280_humidity;BME280_pressure;Samples;Min_cycle;Max_cycle;Signal;HPM_P1;HPM_P2
2023/04/02 00:01:03;;;;;;;5.20;4.60;;;;;;;6.24;100.00;100927.16;5064637;28;20049;-77
2023/04/02 00:03:40;;;;;;;5.35;4.85;;;;;;;6.27;99.57;100929.75;5066026;28;20061;-79
2023/04/02 00:06:33;;;;;;;5.53;5.03;;;;;;;6.22;99.57;100929.78;5066900;28;20057;-79
2023/04/02 00:09:13;;;;;;;5.85;5.25;;;;;;;6.23;99.88;100933.28;5065389;28;20041;-79
2023/04/02 00:11:42;;;;;;;5.88;5.28;;;;;;;6.24;99.60;100948.09;5066057;28;20766;-77
2023/04/02 00:14:28;;;;;;;5.45;4.95;;;;;;;6.24;99.25;100949.88;5061917;28;20430;-78
2023/04/02 00:17:00;;;;;;;6.00;5.40;;;;;;;6.19;99.29;100952.53;5064788;28;20774;-78
2023/04/02 00:19:57;;;;;;;5.18;4.68;;;;;;;6.25;98.51;100962.06;5064528;28;20506;-79
2023/04/02 00:22:30;;;;;;;5.07;4.47;;;;;;;6.14;98.76;100963.06;5062589;28;20037;-78
2023/04/02 00:25:02;;;;;;;6.07;5.10;;;;;;;6.18;99.13;100969.97;5064024;28;20037;-78
2023/04/02 00:27:31;;;;;;;14.65;6.10;;;;;;;6.17;99.14;100970.00;5064422;28;20083;-77
2023/04/02 00:29:58;;;;;;;6.65;5.68;;;;;;;6.13;99.71;100984.88;5064302;28;20044;-78
2023/04/02 00:32:31;;;;;;;6.45;5.85;;;;;;;6.16;99.78;100990.06;5065215;28;20117;-78
2023/04/02 00:35:00;;;;;;;6.80;6.10;;;;;;;6.17;99.72;100990.94;5065109;28;20094;-77
2023/04/02 00:37:37;;;;;;;8.70;7.05;;;;;;;6.17;100.00;100989.16;5064199;28;20500;-76
2023/04/02 00:40:25;;;;;;;6.72;5.75;;;;;;;6.19;99.29;100995.28;5063258;28;20128;-77
2023/04/02 00:42:57;;;;;;;8.70;5.95;;;;;;;6.14;98.94;101002.31;5063201;28;20076;-77
2023/04/02 00:45:31;;;;;;;5.75;5.10;;;;;;;6.13;98.09;101000.56;5063278;28;20041;-76
2023/04/02 00:48:30;;;;;;;5.90;5.30;;;;;;;6.05;98.31;100994.56;5065555;28;20124;-76
2023/04/02 00:51:14;;;;;;;5.43;4.35;;;;;;;6.06;97.83;101011.97;5080032;28;20055;-76
2023/04/02 00:53:46;;;;;;;6.10;5.50;;;;;;;5.99;97.89;101011.16;5061796;28;20068;-75
2023/04/02 00:56:29;;;;;;;6.75;5.20;;;;;;;5.96;98.43;101018.13;5080252;28;20124;-76
2023/04/02 00:58:57;;;;;;;5.82;5.28;;;;;;;5.94;98.38;101027.75;5065384;28;20922;-76
2023/04/02 01:01:35;;;;;;;6.45;5.20;;;;;;;5.90;98.56;101029.53;5065232;28;20148;-76
2023/04/02 01:04:04;;;;;;;5.68;5.10;;;;;;;5.90;97.89;101034.78;5064333;28;20045;-77
2023/04/02 01:06:36;;;;;;;5.97;4.90;;;;;;;5.86;97.87;101041.75;5064606;28;20045;-77
2023/04/02 01:09:30;;;;;;;4.55;4.05;;;;;;;5.93;97.12;101053.03;5063240;28;20052;-78
2023/04/02 01:12:28;;;;;;;5.35;4.47;;;;;;;5.93;97.05;101050.44;5063386;28;20048;-77
2023/04/02 01:15:19;;;;;;;5.70;4.05;;;;;;;5.91;97.08;101050.44;5064392;28;20175;-77
2023/04/02 01:18:19;;;;;;;4.88;4.32;;;;;;;5.89;96.62;101059.19;5063654;28;20049;-78
2023/04/02 01:21:40;;;;;;;5.38;4.82;;;;;;;5.86;97.34;101057.44;5065956;28;20037;-77
2023/04/02 01:24:13;;;;;;;5.75;4.75;;;;;;;5.85;97.54;101066.19;5074571;28;20093;-77
2023/04/02 01:27:01;;;;;;;5.82;4.45;;;;;;;5.83;97.59;101073.19;5077079;28;20059;-78
2023/04/02 01:29:40;;;;;;;4.38;3.90;;;;;;;5.84;96.33;101074.94;5057994;28;20049;-76
2023/04/02 01:32:13;;;;;;;5.20;3.97;;;;;;;5.77;96.02;101078.44;5065462;28;20045;-76
2023/04/02 01:34:44;;;;;;;5.28;3.90;;;;;;;5.72;96.65;101085.47;5068289;28;20294;-76
2023/04/02 01:37:39;;;;;;;4.20;3.80;;;;;;;5.73;96.05;101095.06;5066191;28;20040;-77
2023/04/02 01:40:37;;;;;;;4.40;3.80;;;;;;;5.69;96.50;101098.56;5075499;28;20057;-77
2023/04/02 01:43:30;;;;;;;4.82;4.00;;;;;;;5.65;96.32;101123.88;5063210;28;20049;-76
2023/04/02 01:46:22;;;;;;;4.22;3.83;;;;;;;5.62;96.13;101112.56;5065502;28;20033;-75
2023/04/02 01:48:50;;;;;;;3.70;3.28;;;;;;;5.65;95.68;101116.03;5068286;28;20433;-75
2023/04/02 01:51:34;;;;;;;4.50;4.10;;;;;;;5.59;95.77;101108.22;5066383;28;20095;-76
2023/04/02 01:54:06;;;;;;;4.78;3.90;;;;;;;5.64;95.43;101127.38;5063885;28;20045;-76
2023/04/02 01:56:34;;;;;;;4.38;3.75;;;;;;;5.62;95.29;101128.25;5067960;28;20045;-75
2023/04/02 01:59:04;;;;;;;4.68;4.20;;;;;;;5.59;95.48;101132.63;5065024;28;20047;-76
2023/04/02 02:01:47;;;;;;;4.43;3.67;;;;;;;5.58;95.53;101130.03;5081276;28;20049;-78
2023/04/02 02:04:16;;;;;;;5.00;4.43;;;;;;;5.55;96.11;101132.66;5082932;28;20055;-77
2023/04/02 02:06:45;;;;;;;5.20;4.47;;;;;;;5.60;95.05;101142.22;5069145;28;20052;-76
2023/04/02 02:09:25;;;;;;;6.18;4.88;;;;;;;5.55;95.80;101146.56;5065988;28;20427;-76
2023/04/02 02:11:55;;;;;;;5.70;4.80;;;;;;;5.56;95.70;101145.69;5067232;28;20079;-76
2023/04/02 02:14:26;;;;;;;6.03;4.93;;;;;;;5.57;95.81;101162.28;5065371;28;20075;-76
2023/04/02 02:16:58;;;;;;;6.28;5.13;;;;;;;5.52;95.81;101158.81;5066095;28;20560;-76
2023/04/02 02:19:51;;;;;;;6.43;5.20;;;;;;;5.56;95.71;101168.38;5052037;28;20140;-76
2023/04/02 02:22:30;;;;;;;6.70;5.25;;;;;;;5.47;96.32;101169.28;5064234;28;20040;-75
2023/04/02 02:25:04;;;;;;;6.63;5.93;;;;;;;5.48;96.91;101186.72;5056132;28;20052;-77
2023/04/02 02:27:59;;;;;;;7.32;5.88;;;;;;;5.50;96.61;101176.22;5067751;28;20095;-79
2023/04/02 02:30:28;;;;;;;6.63;6.03;;;;;;;5.47;96.73;101198.03;5062515;28;20053;-78
2023/04/02 02:33:13;;;;;;;6.95;5.60;;;;;;;5.52;96.46;101203.25;5063144;28;20052;-78
2023/04/02 02:35:49;;;;;;;7.47;5.88;;;;;;;5.50;96.32;101194.53;5060141;28;20056;-76
2023/04/02 02:39:21;;;;;;;8.98;5.63;;;;;;;5.50;95.54;101211.13;5065437;28;20472;-77
2023/04/02 02:41:59;;;;;;;7.18;5.85;;;;;;;5.42;95.67;101213.75;5085524;28;20053;-80
2023/04/02 02:44:34;;;;;;;7.10;6.30;;;;;;;5.38;96.02;101219.00;5064638;28;20571;-79
2023/04/02 02:47:10;;;;;;;7.57;6.43;;;;;;;5.39;95.76;101220.75;5064708;28;20049;-79
2023/04/02 02:49:44;;;;;;;7.00;6.30;;;;;;;5.36;95.78;101231.19;5067933;28;20128;-79
2023/04/02 02:52:24;;;;;;;;;;;;;;;5.33;95.39;101226.84;5083955;28;20041;-80
2023/04/02 02:55:10;;;;;;;7.25;6.35;;;;;;;5.32;94.71;101232.94;5084247;28;19978;-77
2023/04/02 02:58:30;;;;;;;6.90;6.03;;;;;;;5.28;94.43;101242.56;5066894;28;20132;-77
2023/04/02 03:01:19;;;;;;;7.95;6.60;;;;;;;5.21;94.55;101234.72;5061754;28;20063;-76
2023/04/02 03:03:53;;;;;;;8.40;6.20;;;;;;;5.18;95.00;101250.44;5081953;28;20606;-78
2023/04/02 03:06:23;;;;;;;8.23;6.40;;;;;;;5.15;95.79;101258.25;5063475;28;20053;-77
2023/04/02 03:09:39;;;;;;;8.55;6.28;;;;;;;5.16;95.41;101267.84;5066834;28;20049;-78
2023/04/02 03:12:44;;;;;;;5.65;4.70;;;;;;;5.20;93.67;101272.19;5039626;28;20513;-77
2023/04/02 03:15:40;;;;;;;6.18;5.55;;;;;;;5.17;93.16;101273.06;5077569;28;20041;-76
2023/04/02 03:18:40;;;;;;;7.35;5.28;;;;;;;5.12;93.47;101277.44;5066055;28;20128;-76
2023/04/02 03:21:33;;;;;;;6.05;5.35;;;;;;;5.10;93.47;101285.25;5047105;28;20489;-77
2023/04/02 03:24:13;;;;;;;6.78;5.90;;;;;;;5.02;94.29;101287.00;5056970;28;20052;-75
2023/04/02 03:27:15;;;;;;;7.28;5.60;;;;;;;5.05;94.17;101289.63;5065881;28;20051;-76
2023/04/02 03:30:02;;;;;;;7.00;5.75;;;;;;;5.08;93.49;101292.25;5064562;28;20061;-76
2023/04/02 03:32:39;;;;;;;6.10;5.32;;;;;;;5.08;92.85;101294.88;5060772;28;20102;-75
2023/04/02 03:35:26;;;;;;;7.25;6.15;;;;;;;5.03;93.16;101303.56;5065622;28;20064;-76
2023/04/02 03:38:05;;;;;;;8.25;7.38;;;;;;;5.06;93.71;101319.25;5065064;28;20045;-76
2023/04/02 03:40:51;;;;;;;9.65;7.63;;;;;;;5.01;94.11;101319.25;5047064;28;20044;-76
2023/04/02 03:43:28;;;;;;;10.27;8.68;;;;;;;4.97;94.51;101331.44;5060669;28;20056;-77
2023/04/02 03:46:12;;;;;;;11.13;8.68;;;;;;;4.97;93.85;101334.06;5054027;28;20049;-78
2023/04/02 03:48:46;;;;;;;10.55;8.57;;;;;;;4.90;94.34;101340.16;5073774;28;20048;-78
2023/04/02 03:51:36;;;;;;;13.02;8.05;;;;;;;4.87;94.57;101341.88;5064674;28;20037;-74
2023/04/02 03:54:04;;;;;;;10.68;8.50;;;;;;;4.83;94.19;101351.47;5077792;28;20044;-78
2023/04/02 03:56:39;;;;;;;9.60;7.85;;;;;;;4.86;93.26;101358.44;5081860;28;20056;-77
2023/04/02 03:59:40;;;;;;;10.27;7.68;;;;;;;4.79;93.41;101371.47;5065600;28;20053;-77
2023/04/02 04:02:25;;;;;;;10.02;8.27;;;;;;;4.72;94.09;101374.09;5063433;28;20045;-77
2023/04/02 04:04:56;;;;;;;9.05;7.03;;;;;;;4.72;94.04;101380.16;5063009;28;20122;-74
2023/04/02 04:07:40;;;;;;;9.80;8.07;;;;;;;4.67;94.27;101387.13;5065977;28;21236;-74
2023/04/02 04:10:18;;;;;;;11.67;8.60;;;;;;;4.63;94.63;101391.44;5066694;28;20389;-73
2023/04/02 04:13:13;;;;;;;10.98;8.20;;;;;;;4.59;95.10;101394.03;5064461;28;20072;-75
2023/04/02 04:16:10;;;;;;;13.00;7.90;;;;;;;4.66;94.54;101414.09;5064186;28;21915;-75
2023/04/02 04:19:21;;;;;;;9.40;7.22;;;;;;;4.64;93.94;101423.69;5065452;28;20057;-76
2023/04/02 04:22:17;;;;;;;12.93;8.77;;;;;;;4.54;93.91;101430.59;5064393;28;20199;-75
2023/04/02 04:25:29;;;;;;;10.93;7.68;;;;;;;4.51;94.19;101426.22;5063108;28;20056;-75
2023/04/02 04:28:41;;;;;;;16.67;8.13;;;;;;;4.49;93.33;101433.19;5065114;28;20041;-75
2023/04/02 04:31:48;;;;;;;10.13;7.68;;;;;;;4.45;93.42;101439.28;5063462;28;20056;-74
2023/04/02 04:34:52;;;;;;;12.77;7.65;;;;;;;4.40;93.39;101448.81;5063210;28;20560;-76
2023/04/02 04:37:52;;;;;;;11.20;8.10;;;;;;;4.35;94.01;101455.75;5063452;28;20045;-76
2023/04/02 04:40:54;;;;;;;12.90;7.57;;;;;;;4.33;94.13;101457.47;5065703;28;20131;-73
2023/04/02 04:44:16;;;;;;;10.98;7.55;;;;;;;4.34;93.92;101459.22;5062967;28;20048;-75
2023/04/02 04:47:29;;;;;;;10.05;6.85;;;;;;;4.36;93.58;101467.94;5061787;28;20056;-74
2023/04/02 04:50:37;;;;;;;9.23;6.38;;;;;;;4.38;92.99;101479.25;5076394;28;20164;-74
2023/04/02 04:53:28;;;;;;;8.35;6.25;;;;;;;4.32;93.22;101484.44;5061510;28;20134;-74
2023/04/02 04:56:25;;;;;;;10.75;6.22;;;;;;;4.37;92.79;101490.59;5063529;28;20140;-73
2023/04/02 04:59:31;;;;;;;12.52;6.93;;;;;;;4.34;93.03;101504.47;5076830;28;20099;-74
2023/04/02 05:02:44;;;;;;;11.95;6.93;;;;;;;4.32;93.19;101513.16;5059986;28;20103;-72
2023/04/02 05:05:39;;;;;;;11.75;7.32;;;;;;;4.27;93.38;101515.75;5085989;28;20536;-75
2023/04/02 05:08:36;;;;;;;13.38;6.57;;;;;;;4.24;93.92;101527.91;5061555;28;20044;-74
2023/04/02 05:11:20;;;;;;;9.77;6.32;;;;;;;4.34;92.16;101534.94;5049442;28;20044;-74
2023/04/02 05:14:02;;;;;;;9.90;6.45;;;;;;;4.26;91.96;101540.09;5060279;28;20047;-76
2023/04/02 05:16:46;;;;;;;9.32;5.97;;;;;;;4.27;91.20;101541.84;5062053;28;20080;-80
2023/04/02 05:19:30;;;;;;;10.18;6.30;;;;;;;4.25;90.74;101554.00;5093634;28;20896;-78
2023/04/02 05:22:11;;;;;;;9.13;5.70;;;;;;;4.17;91.25;101559.16;5058124;28;20053;-79
2023/04/02 05:25:19;;;;;;;10.05;5.40;;;;;;;4.20;90.76;101561.81;5060428;28;20133;-77
2023/04/02 05:28:09;;;;;;;10.15;5.95;;;;;;;4.17;90.57;101564.38;5051308;28;20057;-78
2023/04/02 05:30:45;;;;;;;8.73;5.65;;;;;;;4.16;90.26;101573.09;5060389;28;20124;-77
2023/04/02 05:33:31;;;;;;;8.65;5.38;;;;;;;4.17;90.03;101573.97;5057666;28;20567;-76
2023/04/02 05:36:10;;;;;;;8.18;5.25;;;;;;;4.16;89.64;101575.72;5058993;28;20120;-77
2023/04/02 05:38:46;;;;;;;7.22;5.07;;;;;;;4.15;89.83;101588.72;5078876;28;20104;-79
2023/04/02 05:41:37;;;;;;;8.13;5.55;;;;;;;4.11;90.15;101595.66;5067084;28;20041;-75
2023/04/02 05:44:27;;;;;;;9.60;5.10;;;;;;;4.13;90.07;101599.16;5065344;28;20120;-74
2023/04/02 05:47:09;;;;;;;8.25;5.63;;;;;;;4.09;90.20;101601.75;5059629;28;20045;-73
2023/04/02 05:49:49;;;;;;;8.80;5.30;;;;;;;4.11;90.00;101610.47;5058223;28;20048;-74
2023/04/02 05:52:34;;;;;;;11.35;5.65;;;;;;;4.16;88.59;101614.84;5054691;28;20810;-75
2023/04/02 05:55:11;;;;;;;9.23;6.03;;;;;;;4.12;88.37;101627.88;5061540;28;20077;-81
2023/04/02 05:57:50;;;;;;;7.80;5.32;;;;;;;4.11;87.78;101629.59;5080388;28;20041;-82
2023/04/02 06:00:40;;;;;;;10.77;5.18;;;;;;;4.01;88.55;101635.59;5064976;28;20148;-77
2023/04/02 06:03:26;;;;;;;;;;;;;;;4.03;87.70;101637.34;5063679;28;20045;-77
2023/04/02 06:06:02;;;;;;;8.73;5.63;;;;;;;4.00;87.92;101652.09;5063767;28;20782;-78
2023/04/02 06:08:42;;;;;;;9.52;5.20;;;;;;;3.97;88.60;101655.56;5063110;28;20529;-76
2023/04/02 06:11:19;;;;;;;8.68;5.47;;;;;;;3.97;88.42;101658.16;5063886;28;20495;-76
2023/04/02 06:13:46;;;;;;;8.90;5.40;;;;;;;4.00;88.92;101663.41;5060829;28;20120;-76
2023/04/02 06:16:15;;;;;;;7.22;5.38;;;;;;;4.06;89.24;101657.38;5058031;28;20040;-76
2023/04/02 06:18:43;;;;;;;8.88;4.78;;;;;;;4.17;88.74;101670.53;5065383;28;20087;-76
2023/04/02 06:21:16;;;;;;;7.93;4.57;;;;;;;4.19;88.59;101669.69;5065537;28;20575;-76
2023/04/02 06:24:02;;;;;;;5.70;4.57;;;;;;;4.19;88.47;101685.34;5067191;28;20044;-76
2023/04/02 06:26:43;;;;;;;8.38;5.35;;;;;;;4.14;88.77;101697.47;5082645;28;20045;-76
2023/04/02 06:29:38;;;;;;;8.30;4.45;;;;;;;4.17;88.08;101707.06;5063939;28;20079;-74
2023/04/02 06:32:11;;;;;;;8.13;4.40;;;;;;;4.11;87.29;101707.03;5057846;28;20045;-75
2023/04/02 06:34:42;;;;;;;9.13;4.10;;;;;;;4.03;87.66;101712.16;5058508;28;20048;-75
2023/04/02 06:37:31;;;;;;;6.28;4.15;;;;;;;4.04;87.62;101719.13;5065652;28;20045;-73
2023/04/02 06:40:32;;;;;;;8.57;4.27;;;;;;;4.03;87.98;101735.63;5069523;28;20073;-76
2023/04/02 06:43:32;;;;;;;7.30;3.95;;;;;;;4.06;86.76;101740.91;5048056;28;20069;-75
2023/04/02 06:46:33;;;;;;;6.53;3.28;;;;;;;4.00;85.11;101749.53;5057291;28;20115;-75
2023/04/02 06:49:47;;;;;;;5.22;2.85;;;;;;;3.98;83.57;101750.34;5063369;28;20555;-74
2023/04/02 06:52:27;;;;;;;4.43;2.83;;;;;;;3.95;84.16;101755.56;5045408;28;20053;-75
2023/04/02 06:54:56;;;;;;;6.93;3.15;;;;;;;3.93;84.98;101767.69;5079746;28;20041;-75
2023/04/02 06:57:23;;;;;;;5.53;2.88;;;;;;;3.96;84.53;101773.81;5068661;28;20057;-73
2023/04/02 06:59:52;;;;;;;6.07;3.40;;;;;;;3.97;84.94;101775.56;5068408;28;20048;-74
2023/04/02 07:02:38;;;;;;;7.82;3.47;;;;;;;4.00;84.73;101787.78;5065341;28;20045;-74
2023/04/02 07:05:10;;;;;;;6.15;2.90;;;;;;;3.97;84.92;101787.75;5067276;28;20048;-74
2023/04/02 07:07:42;;;;;;;6.88;3.40;;;;;;;3.94;85.81;101796.41;5063796;28;20049;-72
2023/04/02 07:10:11;;;;;;;5.05;2.70;;;;;;;4.01;84.45;101805.19;5063894;28;20045;-73
2023/04/02 07:12:39;;;;;;;5.78;2.55;;;;;;;4.06;82.92;101802.63;5058287;28;20049;-72
2023/04/02 07:15:13;;;;;;;4.20;2.35;;;;;;;4.07;82.27;101817.44;5066550;28;20041;-77
2023/04/02 07:17:42;;;;;;;6.55;2.75;;;;;;;4.07;82.02;101817.44;5062311;28;20045;-74
2023/04/02 07:20:29;;;;;;;5.38;2.60;;;;;;;4.04;82.34;101832.19;5065058;28;20068;-74
2023/04/02 07:23:00;;;;;;;4.57;2.35;;;;;;;4.10;81.02;101833.16;5054043;28;20485;-74
2023/04/02 07:25:27;;;;;;;6.03;2.90;;;;;;;4.04;81.39;101840.03;5063716;28;20169;-77
2023/04/02 07:27:55;;;;;;;6.18;2.22;;;;;;;4.07;81.63;101840.94;5063429;28;20041;-76
2023/04/02 07:30:22;;;;;;;5.47;2.40;;;;;;;4.10;81.50;101840.97;5062438;28;20042;-76
2023/04/02 07:32:49;;;;;;;8.63;2.33;;;;;;;4.18;80.43;101845.41;5061442;28;20041;-76
2023/04/02 07:35:17;;;;;;;7.00;2.50;;;;;;;4.19;79.91;101851.53;5064257;28;20486;-75
2023/04/02 07:37:44;;;;;;;2.58;1.58;;;;;;;4.19;79.97;101865.44;5064589;28;22088;-76
2023/04/02 07:40:20;;;;;;;4.65;2.40;;;;;;;4.21;79.48;101857.66;5063278;28;20098;-76
2023/04/02 07:42:48;;;;;;;4.15;1.88;;;;;;;4.14;80.17;101858.41;5057476;28;20057;-75
2023/04/02 07:45:15;;;;;;;4.93;1.80;;;;;;;4.15;80.72;101863.66;5062937;28;20049;-76
2023/04/02 07:47:42;;;;;;;5.97;2.03;;;;;;;4.17;80.37;101872.38;5062886;28;20052;-77
2023/04/02 07:50:10;;;;;;;4.38;1.80;;;;;;;4.24;78.86;101877.69;5065098;28;20044;-77
2023/04/02 07:52:41;;;;;;;3.28;1.55;;;;;;;4.27;77.88;101880.34;5066468;28;20075;-77
2023/04/02 07:55:11;;;;;;;5.55;1.80;;;;;;;4.21;77.81;101883.75;5061556;28;20051;-78
2023/04/02 07:57:47;;;;;;;4.10;1.80;;;;;;;4.20;78.45;101882.84;5065879;28;20076;-77
2023/04/02 08:00:15;;;;;;;3.92;2.00;;;;;;;4.26;79.06;101889.91;5067004;28;20037;-76
2023/04/02 08:02:42;;;;;;;5.28;2.40;;;;;;;4.35;78.64;101886.53;5065260;28;20045;-76
2023/04/02 08:05:09;;;;;;;5.18;2.05;;;;;;;4.47;76.91;101893.63;5064953;28;20059;-78
2023/04/02 08:07:37;;;;;;;5.47;1.77;;;;;;;4.43;77.15;101897.94;5065882;28;20124;-77
2023/04/02 08:10:09;;;;;;;6.18;1.80;;;;;;;4.44;76.45;101907.53;5066254;28;20503;-76
2023/04/02 08:12:37;;;;;;;6.45;1.80;;;;;;;4.38;76.68;101904.81;5062656;28;20047;-77
2023/04/02 08:15:05;;;;;;;4.25;1.92;;;;;;;4.33;77.55;101912.59;5065063;28;20045;-76
2023/04/02 08:17:32;;;;;;;5.15;1.90;;;;;;;4.37;77.72;101918.75;5064906;28;20156;-76
2023/04/02 08:20:00;;;;;;;3.58;1.60;;;;;;;4.42;76.76;101926.66;5064308;28;20495;-77
2023/04/02 08:22:28;;;;;;;3.20;1.58;;;;;;;4.43;76.29;101933.59;5065532;28;20468;-77
2023/04/02 08:24:55;;;;;;;3.55;1.52;;;;;;;4.38;76.51;101932.69;5064702;28;20204;-76
2023/04/02 08:27:24;;;;;;;3.65;2.10;;;;;;;4.37;76.91;101933.53;5064421;28;20048;-76
2023/04/02 08:29:51;;;;;;;4.07;1.50;;;;;;;4.40;76.64;101944.03;5063806;28;20111;-75
2023/04/02 08:32:18;;;;;;;3.47;1.55;;;;;;;4.42;76.34;101951.03;5064401;28;20041;-74
2023/04/02 08:34:45;;;;;;;5.38;1.70;;;;;;;4.38;77.74;101948.34;5060022;28;20052;-76
2023/04/02 08:37:13;;;;;;;2.47;1.45;;;;;;;4.56;76.65;101961.63;5064955;28;20055;-74
2023/04/02 08:39:40;;;;;;;3.72;1.45;;;;;;;4.60;75.55;101967.78;5064178;28;20041;-75
2023/04/02 08:42:39;;;;;;;2.53;1.50;;;;;;;4.57;76.21;101970.38;5065442;28;20065;-75
2023/04/02 08:45:39;;;;;;;4.20;1.75;;;;;;;4.61;76.34;101965.19;5064034;28;20512;-74
2023/04/02 08:48:11;;;;;;;4.55;1.40;;;;;;;4.63;76.64;101979.13;5065826;28;20486;-75
2023/04/02 08:50:43;;;;;;;3.55;1.60;;;;;;;4.72;75.57;101974.91;5065766;28;20072;-75
2023/04/02 08:53:20;;;;;;;3.45;1.30;;;;;;;4.73;75.12;101987.13;5063379;28;20141;-76
2023/04/02 08:56:04;;;;;;;3.85;1.55;;;;;;;4.75;74.79;101988.88;5061641;28;20045;-75
2023/04/02 08:59:11;;;;;;;2.60;1.23;;;;;;;4.77;75.87;102005.47;5053857;28;20127;-75
2023/04/02 09:02:04;;;;;;;5.10;1.60;;;;;;;4.90;74.76;102024.78;5062549;28;20053;-78
2023/04/02 09:04:33;;;;;;;3.45;1.88;;;;;;;4.92;74.44;102023.06;5064255;28;20037;-79
2023/04/02 09:07:00;;;;;;;4.78;1.48;;;;;;;4.93;73.70;102029.16;5064811;28;20774;-76
2023/04/02 09:09:27;;;;;;;4.75;1.60;;;;;;;4.90;74.71;102023.88;5065354;28;20120;-80
2023/04/02 09:12:03;;;;;;;4.00;1.27;;;;;;;5.04;74.37;102026.66;5059731;28;20041;-78
2023/04/02 09:14:51;;;;;;;3.92;1.42;;;;;;;5.07;74.13;102034.53;5067035;28;20044;-76
2023/04/02 09:17:22;;;;;;;5.28;1.50;;;;;;;5.03;74.75;102031.00;5057825;28;20041;-78
2023/04/02 09:19:57;;;;;;;3.72;1.42;;;;;;;5.11;75.22;102037.19;5062207;28;20045;-76
2023/04/02 09:22:30;;;;;;;;;;;;;;;5.31;73.54;102040.91;5060283;28;20052;-77
2023/04/02 09:25:00;;;;;;;3.47;1.52;;;;;;;5.39;72.60;102045.34;5063532;28;19936;-77
2023/04/02 09:27:32;;;;;;;2.05;1.20;;;;;;;5.40;72.81;102043.63;5061028;28;20045;-79
2023/04/02 09:30:28;;;;;;;3.53;1.52;;;;;;;5.41;72.75;102048.84;5060514;28;20052;-81
2023/04/02 09:33:01;;;;;;;3.00;1.30;;;;;;;5.41;72.65;102064.56;5066227;28;20045;-79
2023/04/02 09:35:31;;;;;;;4.57;1.40;;;;;;;5.41;72.31;102072.41;5063683;28;20576;-79
2023/04/02 09:38:20;;;;;;;3.67;1.35;;;;;;;5.35;72.27;102072.34;5064164;28;20053;-77
2023/04/02 09:40:57;;;;;;;4.72;1.52;;;;;;;5.33;73.12;102073.19;5067661;28;20065;-78
2023/04/02 09:43:36;;;;;;;3.42;1.38;;;;;;;5.37;72.92;102078.47;5064843;28;20064;-80
2023/04/02 09:46:17;;;;;;;3.58;1.33;;;;;;;5.43;71.52;102070.69;5062672;28;20100;-80
2023/04/02 09:48:57;;;;;;;3.33;1.30;;;;;;;5.45;70.65;102075.91;5063499;28;20049;-78
2023/04/02 09:51:30;;;;;;;4.32;1.60;;;;;;;5.38;71.62;102095.03;5064822;28;20120;-80
2023/04/02 09:54:00;;;;;;;2.85;1.20;;;;;;;5.44;71.36;102084.66;5066743;28;20053;-80
2023/04/02 09:56:34;;;;;;;4.57;1.52;;;;;;;5.44;71.76;102084.66;5068744;28;20112;-79
2023/04/02 09:59:20;;;;;;;3.47;1.40;;;;;;;5.51;71.56;102098.66;5063372;28;20816;-78
2023/04/02 10:01:54;;;;;;;3.83;1.35;;;;;;;5.60;71.43;102103.97;5066125;28;20044;-79
2023/04/02 10:04:36;;;;;;;3.38;1.10;;;;;;;5.63;70.35;102117.09;5065627;28;20033;-79
2023/04/02 10:07:05;;;;;;;2.88;1.40;;;;;;;5.54;71.14;102114.38;5067026;28;20049;-81
2023/04/02 10:09:37;;;;;;;4.20;1.40;;;;;;;5.55;72.04;102118.75;5059899;28;20075;-75
2023/04/02 10:12:12;;;;;;;4.20;1.50;;;;;;;5.67;71.02;102129.38;5068267;28;20105;-79
2023/04/02 10:14:47;;;;;;;2.65;1.30;;;;;;;5.70;70.08;102145.06;5069063;28;20084;-78
2023/04/02 10:17:23;;;;;;;;;;;;;;;5.67;70.41;102142.44;5069323;28;20080;-81
2023/04/02 10:20:05;;;;;;;4.65;1.58;;;;;;;5.70;70.43;102139.84;5064273;28;19924;-80
2023/04/02 10:22:32;;;;;;;4.05;1.48;;;;;;;5.86;70.14;102146.13;5066045;28;20053;-77
2023/04/02 10:25:00;;;;;;;5.57;1.90;;;;;;;5.98;69.43;102149.72;5066657;28;20433;-77
2023/04/02 10:27:56;;;;;;;3.75;1.50;;;;;;;6.02;68.55;102154.19;5064462;28;20885;-76
2023/04/02 10:30:48;;;;;;;5.05;1.50;;;;;;;6.02;68.94;102159.41;5063652;28;20045;-78
2023/04/02 10:33:50;;;;;;;3.42;1.42;;;;;;;6.14;68.12;102171.72;5063178;27;20052;-79
2023/04/02 10:36:50;;;;;;;2.50;1.30;;;;;;;6.13;68.25;102169.97;5056883;28;20148;-78
2023/04/02 10:39:47;;;;;;;3.30;1.30;;;;;;;6.24;68.91;102172.72;5061001;28;20889;-77
2023/04/02 10:42:27;;;;;;;2.78;1.15;;;;;;;6.45;66.48;102187.72;5061908;28;20056;-80
2023/04/02 10:45:17;;;;;;;2.47;1.20;;;;;;;6.45;66.07;102192.97;5057619;28;20044;-79
2023/04/02 10:47:56;;;;;;;3.08;1.50;;;;;;;6.43;67.40;102189.44;5065978;28;20041;-78
2023/04/02 10:50:36;;;;;;;3.35;1.23;;;;;;;6.55;67.17;102191.31;5064819;28;20152;-80
2023/04/02 10:53:32;;;;;;;2.72;1.30;;;;;;;6.70;66.88;102195.78;5066300;28;20045;-80
2023/04/02 10:56:08;;;;;;;3.45;1.27;;;;;;;6.70;66.80;102201.91;5059239;28;20075;-81
2023/04/02 10:58:53;;;;;;;3.75;1.40;;;;;;;6.75;65.65;102189.72;5068776;28;20072;-79
2023/04/02 11:01:29;;;;;;;3.25;1.40;;;;;;;6.75;66.14;102207.19;5068397;28;20033;-81
2023/04/02 11:04:12;;;;;;;5.18;1.52;;;;;;;6.70;65.63;102191.41;5066398;28;20045;-81
2023/04/02 11:06:52;;;;;;;2.97;1.33;;;;;;;6.70;66.24;102196.66;5061142;28;20036;-79
2023/04/02 11:09:44;;;;;;;6.85;1.52;;;;;;;6.70;66.15;102201.91;5064664;28;20037;-80
2023/04/02 11:12:38;;;;;;;3.65;1.45;;;;;;;6.72;65.21;102210.66;5060832;28;20841;-80
2023/04/02 11:15:17;;;;;;;5.00;1.65;;;;;;;6.60;65.69;102207.94;5065634;28;20045;-76
2023/04/02 11:17:46;;;;;;;3.13;1.40;;;;;;;6.50;67.24;102220.09;5060439;28;20033;-76
2023/04/02 11:20:56;;;;;;;2.58;1.30;;;;;;;6.56;66.00;102219.28;5058026;28;20498;-77
2023/04/02 11:23:29;;;;;;;4.00;1.42;;;;;;;6.51;65.72;102225.34;5064491;28;20068;-76
2023/04/02 11:26:36;;;;;;;2.97;1.20;;;;;;;6.45;66.31;102222.69;5065644;28;20047;-78
2023/04/02 11:29:28;;;;;;;3.00;1.30;;;;;;;6.46;65.90;102229.63;5058400;28;20136;-78
2023/04/02 11:32:19;;;;;;;3.65;1.10;;;;;;;6.40;66.34;102231.34;5061761;28;20073;-76
2023/04/02 11:34:57;;;;;;;3.67;1.10;;;;;;;6.40;67.04;102233.97;5061809;28;20112;-79
2023/04/02 11:37:42;;;;;;;2.33;1.05;;;;;;;6.55;65.82;102238.47;5064297;28;20726;-77
2023/04/02 11:40:14;;;;;;;3.20;1.13;;;;;;;6.54;64.99;102242.81;5063937;28;20088;-76
2023/04/02 11:42:44;;;;;;;3.28;1.10;;;;;;;6.50;65.23;102241.91;5057558;28;20056;-79
2023/04/02 11:45:23;;;;;;;2.53;0.90;;;;;;;6.56;64.71;102254.19;5057749;28;20131;-77
2023/04/02 11:48:06;;;;;;;2.42;1.17;;;;;;;6.52;64.83;102255.03;5062727;28;20041;-77
2023/04/02 11:50:45;;;;;;;4.03;1.38;;;;;;;6.62;64.70;102269.09;5051250;28;20045;-77
2023/04/02 11:53:15;;;;;;;2.60;1.27;;;;;;;6.63;63.67;102266.47;5061458;28;20125;-77
2023/04/02 11:56:16;;;;;;;2.90;1.30;;;;;;;6.70;63.96;102262.19;5050891;28;20041;-78
2023/04/02 11:59:15;;;;;;;3.17;1.25;;;;;;;6.73;63.79;102274.44;5057253;28;20044;-78
2023/04/02 12:02:17;;;;;;;3.58;1.00;;;;;;;6.65;64.56;102274.38;5064127;28;20044;-75
2023/04/02 12:04:56;;;;;;;2.50;1.20;;;;;;;6.82;65.80;102271.88;5053530;28;20057;-77
2023/04/02 12:08:03;;;;;;;3.50;1.10;;;;;;;6.95;64.42;102284.22;5055503;28;20056;-80
2023/04/02 12:10:50;;;;;;;3.70;1.20;;;;;;;7.06;62.85;102286.94;5058998;28;20049;-78
2023/04/02 12:13:20;;;;;;;1.70;1.20;;;;;;;7.12;62.35;102284.38;5059820;28;20041;-77
2023/04/02 12:15:51;;;;;;;3.08;1.25;;;;;;;7.28;61.98;102297.56;5057210;28;20045;-78
2023/04/02 12:18:23;;;;;;;3.20;1.38;;;;;;;7.69;61.49;102288.19;5056833;28;20037;-74
2023/04/02 12:20:55;;;;;;;3.38;1.10;;;;;;;7.96;60.72;102297.94;5063212;28;20096;-77
2023/04/02 12:23:35;;;;;;;2.60;1.30;;;;;;;8.15;60.65;102287.50;5063808;28;20040;-78
2023/04/02 12:26:26;;;;;;;3.88;1.10;;;;;;;8.52;60.22;102285.88;5063237;28;20053;-78
2023/04/02 12:28:55;;;;;;;2.30;0.98;;;;;;;8.71;58.96;102288.50;5058365;28;20050;-79
2023/04/02 12:31:24;;;;;;;4.47;1.45;;;;;;;8.68;57.71;102289.41;5050915;28;20052;-78
2023/04/02 12:33:52;;;;;;;2.80;1.35;;;;;;;8.68;57.55;102286.78;5065263;28;20041;-78
2023/04/02 12:36:22;;;;;;;2.10;1.20;;;;;;;8.76;59.60;102299.91;5055055;28;20037;-77
2023/04/02 12:38:53;;;;;;;3.97;1.40;;;;;;;8.95;58.83;102295.53;5065388;28;20045;-79
2023/04/02 12:41:32;;;;;;;3.83;1.52;;;;;;;9.04;56.48;102299.03;5063434;28;20048;-77